Time;durP1;ratioP1;P1;durP2;ratioP2;P2;SDS_P1;SDS_P2;PMS_P1;PMS_P2;Temp;Humidity;BMP_temperature;BMP_pressure;BME280_temperature;BME280_humidity;BME280_pressure;Samples;Min_cycle;Max_cycle;Signal;HPM_P1;HPM_P2
2021/08/15 00:02:16;;;;;;;13.63;12.40;;;20.50;99.90;;;;;;5068865;28;20605;-85
2021/08/15 00:04:44;;;;;;;14.47;13.23;;;20.50;99.90;;;;;;5069705;28;20712;-84
2021/08/15 00:07:12;;;;;;;14.63;13.33;;;20.50;99.90;;;;;;5068431;28;21010;-84
2021/08/15 00:09:39;;;;;;;16.30;14.83;;;20.50;99.90;;;;;;5069584;28;20707;-84
2021/08/15 00:12:07;;;;;;;14.97;13.50;;;20.50;99.90;;;;;;5069756;28;20625;-84
2021/08/15 00:14:34;;;;;;;15.63;14.13;;;20.50;99.90;;;;;;5083900;28;20609;-84
2021/08/15 00:17:01;;;;;;;15.20;13.80;;;20.50;99.90;;;;;;5090330;28;20605;-84
2021/08/15 00:19:28;;;;;;;15.23;13.73;;;20.40;99.90;;;;;;5093514;28;20649;-84
2021/08/15 00:21:55;;;;;;;16.07;13.80;;;20.40;99.90;;;;;;5092366;28;21188;-83
2021/08/15 00:24:24;;;;;;;15.10;13.83;;;20.40;99.90;;;;;;5093798;28;20608;-84
2021/08/15 00:26:51;;;;;;;14.90;13.40;;;20.40;99.90;;;;;;5093490;28;20617;-84
2021/08/15 00:29:17;;;;;;;14.13;12.67;;;20.30;99.90;;;;;;5093230;28;20636;-84
2021/08/15 00:31:44;;;;;;;14.03;12.83;;;20.20;99.90;;;;;;5093291;28;20682;-84
2021/08/15 00:34:11;;;;;;;14.37;13.00;;;20.20;99.90;;;;;;5093939;28;21182;-84
2021/08/15 00:36:38;;;;;;;14.03;12.67;;;20.30;99.90;;;;;;5093452;28;20665;-84
2021/08/15 00:39:05;;;;;;;14.10;12.67;;;20.20;99.90;;;;;;5093823;28;20985;-84
2021/08/15 00:41:34;;;;;;;14.13;12.83;;;20.20;99.90;;;;;;5092655;28;20616;-83
2021/08/15 00:44:01;;;;;;;14.37;13.07;;;20.10;99.90;;;;;;5093024;28;21078;-84
2021/08/15 00:46:29;;;;;;;15.43;12.30;;;20.10;99.90;;;;;;5093495;28;20667;-84
2021/08/15 00:48:56;;;;;;;13.43;12.00;;;20.20;99.90;;;;;;5092969;28;21008;-84
2021/08/15 00:51:23;;;;;;;15.20;13.67;;;20.20;99.90;;;;;;5092708;28;21240;-84
2021/08/15 00:53:51;;;;;;;14.13;12.70;;;20.20;99.90;;;;;;5092737;28;20682;-84
2021/08/15 00:56:18;;;;;;;13.57;12.37;;;20.20;99.90;;;;;;5092621;28;20607;-84
2021/08/15 00:58:46;;;;;;;13.80;12.50;;;20.20;99.90;;;;;;5093049;28;21157;-84
2021/08/15 01:01:13;;;;;;;13.10;11.80;;;20.00;99.90;;;;;;5093077;28;20612;-84
2021/08/15 01:03:42;;;;;;;15.27;13.77;;;19.90;99.90;;;;;;5091879;28;20652;-83
2021/08/15 01:06:12;;;;;;;12.90;11.60;;;19.90;99.90;;;;;;5092578;28;21057;-83
2021/08/15 01:08:41;;;;;;;15.67;14.37;;;19.90;99.90;;;;;;5092618;28;20705;-83
2021/08/15 01:11:12;;;;;;;13.23;11.97;;;19.80;99.90;;;;;;5092291;28;20662;-83
2021/08/15 01:13:41;;;;;;;14.57;13.20;;;19.90;99.90;;;;;;5085181;28;20621;-84
2021/08/15 01:16:10;;;;;;;13.30;11.90;;;19.80;99.90;;;;;;5072755;28;20613;-84
2021/08/15 01:18:39;;;;;;;13.23;12.03;;;19.80;99.90;;;;;;5074582;28;20641;-84
2021/08/15 01:21:10;;;;;;;16.70;13.90;;;19.70;99.90;;;;;;5079034;28;20624;-83
2021/08/15 01:23:40;;;;;;;13.10;11.90;;;19.60;99.90;;;;;;5075698;28;20649;-83
2021/08/15 01:26:11;;;;;;;13.73;12.53;;;19.60;99.90;;;;;;5084623;28;20983;-84
2021/08/15 01:28:40;;;;;;;14.07;12.37;;;19.60;99.90;;;;;;5077196;28;20736;-83
2021/08/15 01:31:09;;;;;;;14.60;13.10;;;19.60;99.90;;;;;;5071977;28;20641;-83
2021/08/15 01:33:39;;;;;;;15.77;14.00;;;19.60;99.90;;;;;;5091682;28;21337;-84
2021/08/15 01:36:08;;;;;;;15.73;14.20;;;19.60;99.90;;;;;;5092439;28;21131;-83
2021/08/15 01:38:38;;;;;;;13.47;12.33;;;19.50;99.90;;;;;;5092032;28;20609;-84
2021/08/15 01:41:06;;;;;;;14.20;12.90;;;19.40;99.90;;;;;;5079930;28;20961;-83
2021/08/15 01:43:47;;;;;;;14.07;12.73;;;19.50;99.90;;;;;;5071581;28;20610;-83
2021/08/15 01:46:15;;;;;;;16.07;13.17;;;19.50;99.90;;;;;;5071565;28;20619;-84
2021/08/15 01:48:42;;;;;;;16.17;13.77;;;19.40;99.90;;;;;;5071841;28;20614;-84
2021/08/15 01:51:10;;;;;;;15.33;13.80;;;19.40;99.90;;;;;;5071766;28;21237;-84
2021/08/15 01:53:38;;;;;;;14.83;13.43;;;19.40;99.90;;;;;;5071194;28;20961;-84
2021/08/15 01:56:08;;;;;;;16.00;14.60;;;19.40;99.90;;;;;;5071822;28;20676;-84
2021/08/15 01:58:37;;;;;;;15.90;14.20;;;19.30;99.90;;;;;;5087129;28;20718;-83
2021/08/15 02:01:06;;;;;;;16.30;14.00;;;19.30;99.90;;;;;;5091475;28;20640;-84
2021/08/15 02:03:37;;;;;;;14.67;13.33;;;19.30;99.90;;;;;;5091347;28;20670;-84
2021/08/15 02:06:05;;;;;;;14.43;13.17;;;19.30;99.90;;;;;;5091701;28;20662;-84
2021/08/15 02:08:33;;;;;;;14.30;12.90;;;19.20;99.90;;;;;;5091924;28;20692;-83
2021/08/15 02:11:04;;;;;;;15.10;13.70;;;19.20;99.90;;;;;;5091373;28;20652;-83
2021/08/15 02:13:32;;;;;;;15.77;14.03;;;19.20;99.90;;;;;;5090644;28;20625;-83
2021/08/15 02:16:00;;;;;;;15.77;13.73;;;19.10;99.90;;;;;;5091809;28;20615;-83
2021/08/15 02:18:29;;;;;;;15.83;14.33;;;19.10;99.90;;;;;;5091010;28;20624;-83
2021/08/15 02:20:57;;;;;;;15.27;13.90;;;19.10;99.90;;;;;;5091357;28;21176;-84
2021/08/15 02:23:25;;;;;;;14.20;12.80;;;19.20;99.90;;;;;;5089521;28;20604;-83
2021/08/15 02:25:53;;;;;;;14.93;13.63;;;19.10;99.90;;;;;;5090776;28;20715;-83
2021/08/15 02:28:23;;;;;;;14.93;13.33;;;19.00;99.90;;;;;;5091642;28;20681;-83
2021/08/15 02:30:53;;;;;;;15.40;13.90;;;19.10;99.90;;;;;;5090844;28;20651;-83
2021/08/15 02:33:21;;;;;;;15.23;13.83;;;19.10;99.90;;;;;;5070930;28;20616;-83
2021/08/15 02:35:50;;;;;;;16.53;14.83;;;19.00;99.90;;;;;;5071204;28;20616;-83
2021/08/15 02:38:18;;;;;;;16.27;14.87;;;19.00;99.90;;;;;;5070632;28;20622;-83
2021/08/15 02:40:46;;;;;;;15.03;13.53;;;19.00;99.90;;;;;;5070081;28;20618;-83
2021/08/15 02:43:13;;;;;;;15.10;13.80;;;19.00;99.90;;;;;;5070786;28;20663;-83
2021/08/15 02:45:41;;;;;;;19.33;14.77;;;19.00;99.90;;;;;;5070950;28;20617;-83
2021/08/15 02:48:09;;;;;;;15.73;14.20;;;19.00;99.90;;;;;;5070792;28;20648;-83
2021/08/15 02:50:37;;;;;;;18.03;14.70;;;18.90;99.90;;;;;;5070494;28;21201;-83
2021/08/15 02:53:06;;;;;;;18.27;14.60;;;18.90;99.90;;;;;;5069541;28;20629;-83
2021/08/15 02:55:33;;;;;;;18.87;16.93;;;18.90;99.90;;;;;;5070613;28;20667;-83
2021/08/15 02:58:02;;;;;;;15.83;14.43;;;18.90;99.90;;;;;;5070582;28;20642;-83
2021/08/15 03:00:30;;;;;;;15.90;14.30;;;18.80;99.90;;;;;;5070511;28;20716;-83
2021/08/15 03:02:59;;;;;;;17.60;15.93;;;18.80;99.90;;;;;;5070040;28;20617;-83
2021/08/15 03:05:30;;;;;;;15.73;14.23;;;18.80;99.90;;;;;;5070151;28;20631;-83
2021/08/15 03:08:00;;;;;;;16.20;14.70;;;18.70;99.90;;;;;;5070309;28;21201;-83
2021/08/15 03:10:31;;;;;;;15.90;14.50;;;18.80;99.90;;;;;;5070445;28;20629;-83
2021/08/15 03:13:05;;;;;;;17.57;15.97;;;18.80;99.90;;;;;;5070136;28;20643;-83
2021/08/15 03:15:37;;;;;;;17.07;15.43;;;18.80;99.90;;;;;;5070537;28;20628;-83
2021/08/15 03:18:07;;;;;;;18.07;16.27;;;18.80;99.90;;;;;;5069916;28;20686;-82
2021/08/15 03:20:38;;;;;;;15.30;13.90;;;18.80;99.90;;;;;;5070275;28;20609;-82
2021/08/15 03:23:07;;;;;;;15.27;13.47;;;18.80;99.90;;;;;;5068672;28;20628;-83
2021/08/15 03:25:39;;;;;;;14.53;13.20;;;18.80;99.90;;;;;;5070660;28;20625;-83
2021/08/15 03:28:10;;;;;;;16.13;14.43;;;18.90;99.90;;;;;;5069983;28;20616;-83
2021/08/15 03:30:41;;;;;;;16.20;14.70;;;18.90;99.90;;;;;;5069983;28;20616;-83
2021/08/15 03:33:10;;;;;;;15.83;14.23;;;18.90;99.90;;;;;;5088898;28;20662;-83
2021/08/15 03:35:40;;;;;;;16.27;14.67;;;18.80;99.90;;;;;;5090354;28;20628;-83
2021/08/15 03:38:08;;;;;;;15.07;13.53;;;18.80;99.90;;;;;;5090474;28;20627;-83
2021/08/15 03:40:40;;;;;;;16.67;14.93;;;18.80;99.90;;;;;;5090565;28;20652;-82
2021/08/15 03:43:11;;;;;;;16.20;14.70;;;18.80;99.90;;;;;;5090244;28;20993;-83
2021/08/15 03:45:42;;;;;;;16.90;15.40;;;18.80;99.90;;;;;;5090646;28;20727;-83
2021/08/15 03:48:13;;;;;;;21.00;15.43;;;18.70;99.90;;;;;;5090155;28;20629;-83
2021/08/15 03:50:43;;;;;;;16.63;15.10;;;18.70;99.90;;;;;;5090448;28;20977;-82
2021/08/15 03:53:11;;;;;;;16.40;14.80;;;18.60;99.90;;;;;;5093012;28;20662;-83
2021/08/15 03:55:41;;;;;;;16.17;14.57;;;18.70;99.90;;;;;;5094393;28;20686;-83
2021/08/15 03:58:09;;;;;;;17.27;15.70;;;18.60;99.90;;;;;;5094241;28;20662;-82
2021/08/15 04:00:40;;;;;;;16.70;15.00;;;18.70;99.90;;;;;;5094496;28;21239;-83
2021/08/15 04:03:09;;;;;;;18.93;16.90;;;18.60;99.90;;;;;;5094029;28;21191;-82
2021/08/15 04:05:43;;;;;;;19.17;17.37;;;18.60;99.90;;;;;;5093973;28;20638;-82
2021/08/15 04:08:12;;;;;;;18.57;16.77;;;18.50;99.90;;;;;;5094291;28;20623;-83
2021/08/15 04:10:42;;;;;;;22.33;18.60;;;18.50;99.90;;;;;;5093857;28;20615;-82
2021/08/15 04:13:11;;;;;;;18.47;16.53;;;18.50;99.90;;;;;;5093627;28;20633;-83
2021/08/15 04:15:39;;;;;;;18.00;16.20;;;18.50;99.90;;;;;;5094002;28;20630;-83
2021/08/15 04:18:07;;;;;;;15.73;14.23;;;18.50;99.90;;;;;;5093962;28;20645;-82
2021/08/15 04:20:41;;;;;;;17.33;15.63;;;18.60;99.90;;;;;;5094100;28;21136;-83
2021/08/15 04:23:13;;;;;;;15.90;14.30;;;18.60;99.90;;;;;;5092833;28;21169;-82
2021/08/15 04:25:45;;;;;;;15.90;14.40;;;18.70;99.90;;;;;;5093724;28;20638;-82
2021/08/15 04:28:14;;;;;;;15.00;13.60;;;18.70;99.90;;;;;;5093633;28;20962;-82
2021/08/15 04:30:43;;;;;;;15.63;14.07;;;18.80;99.90;;;;;;5093358;28;20738;-82
2021/08/15 04:33:16;;;;;;;16.50;15.07;;;18.90;99.90;;;;;;5073608;28;20627;-82
2021/08/15 04:35:45;;;;;;;16.27;14.57;;;18.90;99.90;;;;;;5073286;28;20638;-82
2021/08/15 04:38:13;;;;;;;15.63;13.77;;;18.90;99.90;;;;;;5073039;28;20619;-83
2021/08/15 04:40:44;;;;;;;16.27;14.57;;;18.80;99.90;;;;;;5072965;28;20623;-82
2021/08/15 04:43:14;;;;;;;14.73;13.33;;;18.90;99.90;;;;;;5072025;28;20639;-83
2021/08/15 04:45:45;;;;;;;18.03;13.37;;;19.00;99.90;;;;;;5073221;28;21023;-82
2021/08/15 04:48:14;;;;;;;14.83;13.43;;;18.90;99.90;;;;;;5073312;28;20612;-83
2021/08/15 04:50:43;;;;;;;15.57;14.17;;;19.00;99.90;;;;;;5072990;28;20666;-82
2021/08/15 04:53:13;;;;;;;16.20;14.70;;;19.00;99.90;;;;;;5072631;28;20652;-82
2021/08/15 04:55:41;;;;;;;16.53;14.93;;;19.00;99.90;;;;;;5073159;28;20620;-83
2021/08/15 04:58:12;;;;;;;18.53;16.57;;;19.00;99.90;;;;;;5072809;28;20621;-82
2021/08/15 05:00:40;;;;;;;17.07;15.53;;;19.10;99.90;;;;;;5073472;28;20613;-82
2021/08/15 05:03:16;;;;;;;18.00;16.03;;;18.90;99.90;;;;;;5072181;28;20723;-82
2021/08/15 05:05:45;;;;;;;15.97;14.47;;;18.90;99.90;;;;;;5072834;28;20613;-82
2021/08/15 05:08:15;;;;;;;16.50;14.70;;;19.00;99.90;;;;;;5072552;28;20659;-82
2021/08/15 05:10:44;;;;;;;20.40;16.40;;;19.00;99.90;;;;;;5073031;28;20687;-82
2021/08/15 05:13:14;;;;;;;17.07;15.67;;;18.90;99.90;;;;;;5072178;28;21333;-82
2021/08/15 05:15:41;;;;;;;17.07;15.37;;;19.00;99.90;;;;;;5072555;28;20618;-82
2021/08/15 05:18:09;;;;;;;16.03;14.63;;;19.00;99.90;;;;;;5072499;28;20648;-82
2021/08/15 05:20:38;;;;;;;17.53;15.97;;;19.10;99.90;;;;;;5072566;28;20643;-82
2021/08/15 05:23:07;;;;;;;17.00;15.30;;;19.10;99.90;;;;;;5070290;28;20657;-81
2021/08/15 05:25:35;;;;;;;18.13;16.53;;;19.10;99.90;;;;;;5072558;28;20617;-82
2021/08/15 05:28:04;;;;;;;21.77;19.50;;;19.10;99.90;;;;;;5072246;28;20670;-82
2021/08/15 05:30:33;;;;;;;22.67;20.23;;;19.10;99.90;;;;;;5072377;28;20671;-82
2021/08/15 05:33:02;;;;;;;19.33;17.60;;;19.20;99.90;;;;;;5089457;28;21134;-82
2021/08/15 05:35:30;;;;;;;19.57;17.47;;;19.20;99.90;;;;;;5091854;28;20614;-82
2021/08/15 05:37:58;;;;;;;20.10;18.40;;;19.30;99.90;;;;;;5092372;28;20616;-82
2021/08/15 05:40:26;;;;;;;20.10;17.93;;;19.40;99.90;;;;;;5092566;28;20608;-83
2021/08/15 05:42:54;;;;;;;17.60;16.10;;;19.50;99.90;;;;;;5091423;28;20616;-82
2021/08/15 05:45:22;;;;;;;19.13;17.27;;;19.50;99.90;;;;;;5092265;28;20617;-83
2021/08/15 05:47:51;;;;;;;18.13;15.87;;;19.50;99.90;;;;;;5091896;28;20622;-83
2021/08/15 05:50:19;;;;;;;18.93;17.13;;;19.50;99.90;;;;;;5092312;28;20617;-83
2021/08/15 05:52:46;;;;;;;36.57;33.10;;;19.60;99.90;;;;;;5091373;28;20701;-83
2021/08/15 05:55:14;;;;;;;26.63;24.13;;;19.60;99.90;;;;;;5092201;28;20620;-83
2021/08/15 05:57:42;;;;;;;18.50;16.70;;;19.70;99.90;;;;;;5092155;28;20922;-83
2021/08/15 06:00:10;;;;;;;18.40;16.80;;;19.70;99.90;;;;;;5092224;28;20736;-83
2021/08/15 06:02:38;;;;;;;18.97;17.17;;;19.80;99.90;;;;;;5091380;28;20617;-83
2021/08/15 06:05:09;;;;;;;21.20;18.93;;;19.90;99.90;;;;;;5092784;28;21008;-82
2021/08/15 06:07:37;;;;;;;19.33;15.90;;;20.00;99.90;;;;;;5092011;28;20638;-82
2021/08/15 06:10:05;;;;;;;18.77;16.90;;;20.10;99.90;;;;;;5091616;28;20612;-81
2021/08/15 06:12:33;;;;;;;18.90;16.90;;;20.10;99.90;;;;;;5091103;28;21227;-81
2021/08/15 06:15:02;;;;;;;17.60;15.80;;;20.20;99.90;;;;;;5091123;28;20624;-81
2021/08/15 06:17:30;;;;;;;17.63;15.83;;;20.30;99.90;;;;;;5091740;28;20616;-83
2021/08/15 06:19:58;;;;;;;17.53;15.90;;;20.40;99.90;;;;;;5091642;28;20620;-83
2021/08/15 06:22:27;;;;;;;17.13;15.33;;;20.60;99.90;;;;;;5089892;28;20652;-83
2021/08/15 06:24:55;;;;;;;18.20;16.27;;;20.60;99.90;;;;;;5091723;28;20612;-82
2021/08/15 06:27:23;;;;;;;16.87;15.20;;;20.70;99.90;;;;;;5091201;28;21180;-82
2021/08/15 06:29:50;;;;;;;17.20;15.70;;;20.70;99.90;;;;;;5090901;28;20621;-82
2021/08/15 06:32:18;;;;;;;15.67;13.90;;;20.70;99.90;;;;;;5078958;28;20754;-82
2021/08/15 06:34:45;;;;;;;15.57;13.90;;;20.70;99.90;;;;;;5071291;28;20734;-82
2021/08/15 06:37:13;;;;;;;14.07;12.50;;;20.80;99.90;;;;;;5070866;28;20609;-82
2021/08/15 06:39:42;;;;;;;14.77;13.37;;;20.90;99.90;;;;;;5070866;28;21030;-82
2021/08/15 06:42:10;;;;;;;14.57;13.10;;;21.00;99.90;;;;;;5070190;28;20629;-82
2021/08/15 06:44:38;;;;;;;15.43;13.83;;;21.00;99.90;;;;;;5070664;28;20609;-82
2021/08/15 06:47:06;;;;;;;17.60;13.53;;;21.20;99.90;;;;;;5071038;28;21008;-82
2021/08/15 06:49:34;;;;;;;16.50;14.30;;;21.20;99.90;;;;;;5070984;28;20618;-82
2021/08/15 06:52:01;;;;;;;18.53;16.70;;;21.40;99.90;;;;;;5070186;28;20642;-82
2021/08/15 06:54:29;;;;;;;19.87;18.07;;;21.50;99.90;;;;;;5070512;28;20619;-83
2021/08/15 06:56:58;;;;;;;18.13;16.27;;;21.50;99.90;;;;;;5071091;28;20721;-83
2021/08/15 06:59:26;;;;;;;16.53;15.00;;;21.70;99.90;;;;;;5070449;28;20627;-83
2021/08/15 07:01:53;;;;;;;16.77;15.07;;;21.70;99.90;;;;;;5070328;28;20677;-83
2021/08/15 07:04:20;;;;;;;15.37;13.97;;;21.90;99.90;;;;;;5070393;28;20614;-82
2021/08/15 07:06:47;;;;;;;15.97;14.47;;;21.90;99.90;;;;;;5070848;28;20631;-82
2021/08/15 07:09:14;;;;;;;17.13;14.07;;;21.90;99.90;;;;;;5070144;28;20623;-82
2021/08/15 07:11:41;;;;;;;15.60;14.00;;;22.20;99.90;;;;;;5069795;28;21195;-82
2021/08/15 07:14:10;;;;;;;15.07;13.57;;;22.30;99.90;;;;;;5070249;28;20624;-82
2021/08/15 07:16:37;;;;;;;14.03;12.63;;;22.30;99.90;;;;;;5070437;28;20601;-82
2021/08/15 07:19:06;;;;;;;14.67;13.37;;;22.30;99.90;;;;;;5070292;28;20720;-82
2021/08/15 07:21:32;;;;;;;14.63;13.37;;;22.30;99.90;;;;;;5069686;28;20663;-82
2021/08/15 07:24:00;;;;;;;15.27;13.77;;;22.40;99.90;;;;;;5068801;28;20609;-82
2021/08/15 07:26:27;;;;;;;15.23;13.80;;;22.50;99.90;;;;;;5069889;28;20629;-82
2021/08/15 07:28:54;;;;;;;15.13;13.63;;;22.50;99.90;;;;;;5070080;28;20615;-82
2021/08/15 07:31:23;;;;;;;15.17;13.67;;;22.60;99.90;;;;;;5073469;28;20614;-82
2021/08/15 07:33:49;;;;;;;16.53;14.80;;;22.70;99.90;;;;;;5090254;28;20734;-82
2021/08/15 07:36:16;;;;;;;14.03;12.83;;;22.70;99.90;;;;;;5089909;28;20736;-82
2021/08/15 07:38:43;;;;;;;14.63;13.33;;;22.70;99.90;;;;;;5090374;28;20645;-82
2021/08/15 07:41:11;;;;;;;14.60;13.10;;;22.80;99.90;;;;;;5090182;28;20618;-82
2021/08/15 07:43:38;;;;;;;15.23;13.63;;;22.80;99.90;;;;;;5089741;28;20711;-82
2021/08/15 07:46:05;;;;;;;13.73;12.60;;;22.90;99.90;;;;;;5089914;28;20663;-82
2021/08/15 07:48:33;;;;;;;14.67;13.30;;;23.00;99.90;;;;;;5090224;28;20615;-82
2021/08/15 07:51:00;;;;;;;14.80;13.43;;;23.10;99.90;;;;;;5089514;28;20667;-82
2021/08/15 07:53:28;;;;;;;14.30;12.90;;;23.20;99.90;;;;;;5089456;28;20708;-82
2021/08/15 07:55:57;;;;;;;16.07;14.20;;;23.30;99.90;;;;;;5090213;28;20621;-82
2021/08/15 07:58:24;;;;;;;14.33;13.03;;;23.30;99.90;;;;;;5090035;28;21180;-82
2021/08/15 08:00:51;;;;;;;14.30;13.10;;;23.40;99.90;;;;;;5089805;28;20618;-82
2021/08/15 08:03:18;;;;;;;14.07;12.87;;;23.60;99.90;;;;;;5089100;28;21017;-82
2021/08/15 08:05:47;;;;;;;14.40;13.20;;;23.60;99.90;;;;;;5090149;28;20616;-82
2021/08/15 08:08:14;;;;;;;13.53;12.43;;;23.70;99.90;;;;;;5089948;28;21173;-82
2021/08/15 08:10:41;;;;;;;13.90;12.70;;;23.70;99.40;;;;;;5090148;28;21165;-83
2021/08/15 08:13:09;;;;;;;14.63;13.23;;;24.00;99.00;;;;;;5089511;28;20658;-82
2021/08/15 08:15:37;;;;;;;13.60;12.40;;;24.10;99.00;;;;;;5090508;28;21229;-82
2021/08/15 08:18:04;;;;;;;14.10;12.90;;;24.00;99.40;;;;;;5089465;28;21150;-82
2021/08/15 08:20:35;;;;;;;14.17;12.87;;;24.00;99.20;;;;;;5090509;28;20648;-83
2021/08/15 08:23:04;;;;;;;13.87;12.60;;;24.30;99.00;;;;;;5088719;28;20616;-82
2021/08/15 08:25:31;;;;;;;14.97;13.67;;;24.30;98.70;;;;;;5089728;28;20613;-82
2021/08/15 08:27:58;;;;;;;14.33;13.03;;;24.30;99.20;;;;;;5089700;28;20678;-82
2021/08/15 08:30:25;;;;;;;16.13;14.43;;;24.30;98.60;;;;;;5089018;28;21181;-82
2021/08/15 08:32:52;;;;;;;14.60;13.20;;;24.40;98.80;;;;;;5072586;28;20714;-82
2021/08/15 08:35:19;;;;;;;15.07;13.43;;;24.50;98.60;;;;;;5069743;28;20621;-82
2021/08/15 08:37:47;;;;;;;15.13;13.70;;;24.50;99.10;;;;;;5069709;28;20606;-82
2021/08/15 08:40:17;;;;;;;15.27;13.93;;;24.60;99.10;;;;;;5072128;28;20812;-82
2021/08/15 08:42:44;;;;;;;14.77;13.47;;;24.70;98.60;;;;;;5072607;28;20675;-82
2021/08/15 08:45:12;;;;;;;18.07;15.70;;;24.70;98.40;;;;;;5072413;28;20609;-82
2021/08/15 08:47:39;;;;;;;14.80;13.50;;;24.80;99.00;;;;;;5073243;28;20625;-82
2021/08/15 08:50:06;;;;;;;14.50;13.30;;;24.70;98.50;;;;;;5072716;28;20613;-83
2021/08/15 08:52:33;;;;;;;15.07;13.53;;;24.70;98.00;;;;;;5072271;28;20718;-82
2021/08/15 08:55:01;;;;;;;14.20;13.00;;;24.90;98.30;;;;;;5072872;28;20675;-82
2021/08/15 08:57:30;;;;;;;16.03;14.60;;;24.90;97.80;;;;;;5072414;28;20613;-83
2021/08/15 08:59:57;;;;;;;14.17;12.87;;;25.10;98.30;;;;;;5072876;28;21046;-83
2021/08/15 09:02:24;;;;;;;15.20;13.63;;;25.40;98.10;;;;;;5071968;28;20976;-83
2021/08/15 09:04:51;;;;;;;14.30;12.97;;;25.60;97.00;;;;;;5072849;28;21041;-82
2021/08/15 09:07:20;;;;;;;11.83;10.90;;;25.80;97.50;;;;;;5072413;28;20609;-83
2021/08/15 09:09:55;;;;;;;12.53;11.53;;;25.90;95.40;;;;;;5072703;28;20597;-83
2021/08/15 09:12:33;;;;;;;12.67;11.67;;;26.20;94.40;;;;;;5071830;28;21154;-83
2021/08/15 09:15:13;;;;;;;12.47;11.47;;;26.30;94.90;;;;;;5072529;28;21172;-82
2021/08/15 09:17:41;;;;;;;13.67;12.47;;;26.50;93.90;;;;;;5072081;28;20621;-82
2021/08/15 09:20:11;;;;;;;16.07;12.80;;;26.50;93.40;;;;;;5072972;28;20605;-82
2021/08/15 09:22:39;;;;;;;12.47;11.47;;;26.50;93.30;;;;;;5070753;28;20606;-82
2021/08/15 09:25:09;;;;;;;12.70;11.40;;;26.40;92.50;;;;;;5073057;28;20633;-82
2021/08/15 09:27:37;;;;;;;12.53;11.53;;;26.40;94.00;;;;;;5072607;28;20629;-82
2021/08/15 09:30:12;;;;;;;13.63;11.30;;;26.60;92.70;;;;;;5072149;28;21189;-83
2021/08/15 09:32:43;;;;;;;13.07;11.20;;;26.80;92.50;;;;;;5085955;28;20647;-82
2021/08/15 09:35:10;;;;;;;12.97;11.80;;;26.90;93.00;;;;;;5091847;28;20616;-83
2021/08/15 09:37:40;;;;;;;12.60;11.60;;;27.00;93.00;;;;;;5092444;28;21161;-83
2021/08/15 09:40:22;;;;;;;12.13;11.03;;;27.20;92.40;;;;;;5092387;28;20662;-82
2021/08/15 09:42:49;;;;;;;13.23;12.13;;;27.40;92.30;;;;;;5074554;28;20640;-82
2021/08/15 09:45:30;;;;;;;12.83;11.57;;;27.30;91.70;;;;;;5071542;28;20987;-83
2021/08/15 09:47:57;;;;;;;12.63;11.70;;;27.40;91.70;;;;;;5072230;28;21016;-82
2021/08/15 09:50:24;;;;;;;12.73;11.70;;;27.50;90.80;;;;;;5071274;28;20621;-82
2021/08/15 09:52:51;;;;;;;12.73;11.63;;;27.40;92.60;;;;;;5071347;28;20653;-82
2021/08/15 09:55:18;;;;;;;14.00;12.80;;;27.30;92.50;;;;;;5071666;28;20664;-82
2021/08/15 09:57:45;;;;;;;12.17;11.10;;;27.00;91.80;;;;;;5071803;28;20645;-82
2021/08/15 10:00:34;;;;;;;13.50;12.17;;;27.00;92.40;;;;;;5071239;28;20617;-82
2021/08/15 10:03:03;;;;;;;13.40;12.27;;;27.20;92.40;;;;;;5071026;28;20663;-82
2021/08/15 10:05:32;;;;;;;13.37;12.17;;;27.30;92.70;;;;;;5071539;28;21035;-83
2021/08/15 10:08:01;;;;;;;14.13;12.80;;;27.50;91.50;;;;;;5072013;28;20616;-82
2021/08/15 10:10:28;;;;;;;13.53;11.53;;;27.80;91.80;;;;;;5070759;28;20621;-82
2021/08/15 10:12:56;;;;;;;14.13;12.80;;;28.00;91.90;;;;;;5070560;28;20650;-82
2021/08/15 10:15:23;;;;;;;12.80;11.67;;;28.20;91.50;;;;;;5071283;28;20617;-83
2021/08/15 10:17:53;;;;;;;12.73;11.50;;;28.20;91.00;;;;;;5071277;28;20626;-83
2021/08/15 10:20:22;;;;;;;13.10;12.00;;;28.20;90.90;;;;;;5071169;28;21233;-82
2021/08/15 10:22:50;;;;;;;13.33;11.97;;;28.30;90.90;;;;;;5069430;28;20617;-82
2021/08/15 10:25:33;;;;;;;13.63;12.27;;;28.30;92.50;;;;;;5071372;28;20660;-82
2021/08/15 10:28:00;;;;;;;13.97;12.63;;;28.60;91.90;;;;;;5071192;28;20662;-82
2021/08/15 10:30:46;;;;;;;12.57;11.37;;;28.80;90.20;;;;;;5071105;28;20683;-82
2021/08/15 10:33:22;;;;;;;14.53;13.13;;;29.00;90.10;;;;;;5090046;28;20750;-84
2021/08/15 10:36:29;;;;;;;11.80;10.70;;;29.00;90.00;;;;;;5091520;28;20665;-83
2021/08/15 10:38:58;;;;;;;12.40;11.30;;;29.40;86.80;;;;;;5028664;28;20643;-84
2021/08/15 10:41:53;;;;;;;12.47;11.20;;;29.30;89.40;;;;;;5081470;28;20641;-84
2021/08/15 10:44:21;;;;;;;16.23;11.90;;;29.50;87.90;;;;;;5091255;28;20660;-82
2021/08/15 10:47:14;;;;;;;11.50;10.50;;;29.70;88.50;;;;;;5090955;28;21025;-82
2021/08/15 10:49:49;;;;;;;10.87;10.00;;;29.60;85.30;;;;;;5090772;28;20648;-83
2021/08/15 10:52:35;;;;;;;12.03;11.03;;;29.20;85.40;;;;;;5090228;28;20612;-83
2021/08/15 10:55:05;;;;;;;13.80;12.57;;;29.60;84.90;;;;;;5089879;28;20672;-82
2021/08/15 10:57:44;;;;;;;12.83;11.70;;;29.70;88.60;;;;;;5091109;28;20659;-83
2021/08/15 11:00:43;;;;;;;12.70;11.63;;;29.70;84.90;;;;;;5090892;28;20616;-83
2021/08/15 11:03:59;;;;;;;14.03;12.83;;;29.60;84.20;;;;;;5089197;28;20682;-83
2021/08/15 11:06:50;;;;;;;11.83;10.83;;;29.40;85.00;;;;;;5090506;28;20683;-83
2021/08/15 11:09:18;;;;;;;12.10;11.13;;;28.80;88.60;;;;;;5090619;28;20636;-83
2021/08/15 11:12:13;;;;;;;14.63;13.17;;;28.70;87.40;;;;;;5090168;28;20705;-83
2021/08/15 11:15:02;;;;;;;13.30;12.10;;;28.90;86.30;;;;;;5054866;28;21247;-83
2021/08/15 11:17:31;;;;;;;12.87;11.77;;;29.00;88.90;;;;;;5090743;28;20665;-83
2021/08/15 11:20:34;;;;;;;12.90;11.67;;;29.30;86.70;;;;;;5090226;28;20984;-83
2021/08/15 11:23:25;;;;;;;12.00;11.00;;;29.70;85.10;;;;;;5089240;28;20996;-83
2021/08/15 11:25:52;;;;;;;12.50;11.47;;;29.90;84.80;;;;;;5090566;28;21032;-83
2021/08/15 11:28:21;;;;;;;12.97;11.60;;;29.90;83.90;;;;;;5090330;28;21203;-82
2021/08/15 11:30:53;;;;;;;11.77;10.60;;;29.80;82.90;;;;;;5090037;28;21188;-82
2021/08/15 11:33:22;;;;;;;13.33;11.73;;;29.50;83.00;;;;;;5090006;28;20710;-84
2021/08/15 11:35:50;;;;;;;13.03;11.77;;;29.40;83.80;;;;;;5089677;28;20608;-82
2021/08/15 11:38:18;;;;;;;13.00;11.80;;;29.80;82.50;;;;;;5090296;28;21307;-82
2021/08/15 11:40:48;;;;;;;11.07;10.17;;;29.30;83.40;;;;;;5090521;28;20624;-83
2021/08/15 11:43:17;;;;;;;15.63;14.43;;;29.10;84.50;;;;;;5090344;28;20686;-83
2021/08/15 11:45:46;;;;;;;18.10;16.70;;;28.80;87.50;;;;;;5090550;28;21245;-83
2021/08/15 11:48:15;;;;;;;54.40;49.47;;;28.50;89.00;;;;;;5090366;28;20631;-83
2021/08/15 11:50:45;;;;;;;15.63;14.03;;;28.20;89.90;;;;;;5089790;28;20652;-83
2021/08/15 11:53:23;;;;;;;13.77;12.60;;;28.00;90.00;;;;;;5090083;28;20665;-83
2021/08/15 11:55:53;;;;;;;13.23;12.10;;;27.90;90.40;;;;;;5090464;28;20612;-83
2021/08/15 11:58:21;;;;;;;12.90;11.60;;;27.60;91.30;;;;;;5090145;28;20608;-83
2021/08/15 12:00:48;;;;;;;12.60;10.87;;;27.40;91.30;;;;;;5089642;28;20631;-84
2021/08/15 12:03:18;;;;;;;13.27;12.13;;;27.20;91.70;;;;;;5089549;28;20623;-84
2021/08/15 12:05:46;;;;;;;13.30;12.10;;;27.20;92.50;;;;;;5089876;28;20616;-83
2021/08/15 12:08:15;;;;;;;14.77;13.33;;;27.00;93.00;;;;;;5089932;28;20608;-84
2021/08/15 12:10:47;;;;;;;14.57;13.27;;;27.00;93.30;;;;;;5089929;28;21208;-84
2021/08/15 12:13:21;;;;;;;14.43;13.23;;;26.90;94.20;;;;;;5090893;28;20709;-84
2021/08/15 12:15:50;;;;;;;15.43;13.93;;;26.80;94.90;;;;;;5093688;28;20665;-84
2021/08/15 12:18:38;;;;;;;15.03;13.63;;;26.50;96.00;;;;;;5093484;28;21198;-85
2021/08/15 12:21:20;;;;;;;15.17;13.77;;;26.20;97.00;;;;;;5093419;28;20727;-86
2021/08/15 12:24:10;;;;;;;14.50;13.30;;;26.10;97.70;;;;;;5092074;28;20616;-85
2021/08/15 12:26:39;;;;;;;13.83;12.53;;;26.10;97.50;;;;;;5093831;28;21023;-85
2021/08/15 12:29:10;;;;;;;15.07;13.77;;;26.10;98.10;;;;;;5093861;28;20628;-86
2021/08/15 12:31:39;;;;;;;17.70;14.90;;;25.80;98.70;;;;;;5087015;28;20625;-85
2021/08/15 12:34:09;;;;;;;16.07;14.47;;;25.70;99.90;;;;;;5073168;28;20752;-86
2021/08/15 12:36:47;;;;;;;15.40;14.20;;;25.70;99.90;;;;;;5072662;28;20623;-85
2021/08/15 12:39:15;;;;;;;17.40;14.87;;;25.50;99.90;;;;;;5073222;28;20715;-85
2021/08/15 12:41:57;;;;;;;16.60;15.00;;;25.20;99.90;;;;;;5072286;28;20732;-85
2021/08/15 12:44:29;;;;;;;16.23;14.93;;;25.00;99.90;;;;;;5073036;28;20678;-85